Wetterdaten: Woche 28.12.20 - 03.01.21 (KW53)
Datum Zeit Temp. A. Feuchte A. Luftdruck Regen Wind Richtung Taupunkt Windchill Windben
28.12.2020 00:00 -0,2 C 83 % 996,3 hPa 0,0 l/m 1,8 km/h N -2,7 C -0,2 C 9,3 km/h
28.12.2020 01:00 -0,2 C 83 % 994,8 hPa 0,0 l/m 4,2 km/h N -2,7 C -0,2 C 11,7 km/h
28.12.2020 02:00 -0,2 C 82 % 994,1 hPa 0,0 l/m 3,5 km/h N -2,8 C -0,2 C 11,7 km/h
28.12.2020 03:00 0,0 C 81 % 992,2 hPa 0,0 l/m 4,8 km/h N -2,8 C -0,2 C 14,1 km/h
28.12.2020 04:00 -0,1 C 79 % 990,8 hPa 0,0 l/m 6,0 km/h N -3,3 C -0,2 C 16,5 km/h
28.12.2020 05:00 -0,5 C 80 % 990,2 hPa 0,0 l/m 3,2 km/h N -3,6 C -0,5 C 11,3 km/h
28.12.2020 06:00 -0,8 C 81 % 989,8 hPa 0,0 l/m 1,6 km/h N -3,6 C -0,8 C 10,9 km/h
28.12.2020 07:00 -0,4 C 81 % 989,5 hPa 0,0 l/m 0,5 km/h N -3,3 C -0,4 C 5,6 km/h
28.12.2020 08:00 -0,2 C 80 % 989,2 hPa 0,0 l/m 0,0 km/h N -3,3 C -0,2 C 0,4 km/h
28.12.2020 09:00 0,1 C 79 % 988,9 hPa 0,0 l/m 0,0 km/h N -3,1 C 0,1 C 0,0 km/h
28.12.2020 10:00 0,7 C 80 % 988,9 hPa 0,0 l/m 0,0 km/h N -2,4 C 0,7 C 0,0 km/h
28.12.2020 11:00 2,6 C 75 % 988,5 hPa 0,0 l/m 0,9 km/h N -1,4 C 2,6 C 4,0 km/h
28.12.2020 12:00 4,9 C 64 % 987,8 hPa 0,0 l/m 0,6 km/h N -1,4 C 4,9 C 4,8 km/h
28.12.2020 13:00 5,2 C 65 % 987,5 hPa 0,0 l/m 1,6 km/h N -0,8 C 5,2 C 7,3 km/h
28.12.2020 14:00 4,4 C 70 % 988,3 hPa 0,0 l/m 0,8 km/h N -0,5 C 4,4 C 15,3 km/h
28.12.2020 15:00 4,1 C 73 % 988,3 hPa 0,0 l/m 0,8 km/h N -0,3 C 4,1 C 20,9 km/h
28.12.2020 16:00 3,3 C 77 % 988,8 hPa 0,0 l/m 1,6 km/h N -0,3 C 3,3 C 13,7 km/h
28.12.2020 17:00 2,9 C 81 % 987,8 hPa 0,0 l/m 0,8 km/h N -0,1 C 2,9 C 8,9 km/h
28.12.2020 18:00 2,9 C 82 % 986,8 hPa 0,0 l/m 0,0 km/h N 0,1 C 2,9 C 0,0 km/h
28.12.2020 19:00 3,6 C 82 % 985,4 hPa 0,0 l/m 0,8 km/h N 0,8 C 3,6 C 7,3 km/h
28.12.2020 20:00 4,2 C 82 % 985,5 hPa 0,0 l/m 0,0 km/h N 1,4 C 4,2 C 6,4 km/h
28.12.2020 21:00 5,2 C 82 % 985,2 hPa 0,0 l/m 0,0 km/h N 2,4 C 5,2 C 0,8 km/h
28.12.2020 22:00 5,1 C 82 % 985,3 hPa 0,0 l/m 0,0 km/h N 2,3 C 5,1 C 0,0 km/h
28.12.2020 23:00 5,4 C 82 % 984,8 hPa 0,3 l/m 0,0 km/h N 2,6 C 5,4 C 5,6 km/h
29.12.2020 00:00 4,6 C 82 % 985,3 hPa 2,1 l/m 0,8 km/h N 1,7 C 4,6 C 6,4 km/h
29.12.2020 01:00 3,3 C 83 % 984,8 hPa 0,3 l/m 0,0 km/h N 0,7 C 3,3 C 0,0 km/h
29.12.2020 02:00 3,1 C 82 % 985,8 hPa 0,0 l/m 0,0 km/h N 0,3 C 3,1 C 0,8 km/h
29.12.2020 03:00 3,1 C 82 % 986,8 hPa 0,0 l/m 0,0 km/h N 0,3 C 3,1 C 0,0 km/h
29.12.2020 04:00 3,2 C 83 % 987,9 hPa 0,0 l/m 0,0 km/h N 0,5 C 3,2 C 4,8 km/h
29.12.2020 05:00 2,1 C 83 % 989,2 hPa 0,0 l/m 0,0 km/h N -0,5 C 2,1 C 0,0 km/h
29.12.2020 06:00 0,3 C 83 % 990,8 hPa 0,0 l/m 0,0 km/h N -2,2 C 0,3 C 0,0 km/h
29.12.2020 07:00 0,3 C 83 % 991,8 hPa 0,0 l/m 0,0 km/h N -2,3 C 0,3 C 0,0 km/h
29.12.2020 08:00 -0,4 C 83 % 992,8 hPa 0,0 l/m 0,0 km/h N -2,9 C -0,4 C 0,0 km/h
29.12.2020 09:00 0,8 C 82 % 993,3 hPa 0,0 l/m 0,0 km/h N -1,9 C 0,8 C 0,8 km/h
29.12.2020 10:00 3,0 C 82 % 993,7 hPa 0,0 l/m 0,0 km/h N 0,2 C 3,0 C 1,6 km/h
29.12.2020 11:00 4,1 C 83 % 993,8 hPa 0,0 l/m 0,0 km/h N 1,3 C 4,1 C 0,0 km/h
29.12.2020 12:00 5,3 C 83 % 994,0 hPa 0,0 l/m 0,0 km/h N 2,5 C 5,3 C 1,6 km/h
29.12.2020 13:00 6,6 C 78 % 994,4 hPa 0,0 l/m 0,0 km/h N 3,0 C 6,6 C 1,6 km/h
29.12.2020 14:00 7,5 C 74 % 995,1 hPa 0,0 l/m 0,0 km/h N 3,2 C 7,5 C 3,2 km/h
29.12.2020 15:00 7,8 C 72 % 995,9 hPa 0,0 l/m 0,0 km/h N 3,1 C 7,8 C 2,4 km/h
29.12.2020 16:00 6,0 C 73 % 997,0 hPa 0,0 l/m 0,0 km/h N 1,5 C 6,0 C 0,0 km/h
29.12.2020 17:00 3,5 C 79 % 998,1 hPa 0,0 l/m 0,0 km/h N 0,1 C 3,5 C 0,0 km/h
29.12.2020 18:00 2,6 C 82 % 999,3 hPa 0,0 l/m 0,0 km/h N -0,3 C 2,6 C 0,0 km/h
29.12.2020 19:00 1,8 C 82 % 999,8 hPa 0,0 l/m 0,0 km/h N -0,9 C 1,8 C 0,0 km/h
29.12.2020 20:00 1,3 C 83 % 1000,3 hPa 0,0 l/m 0,0 km/h N -1,3 C 1,3 C 0,0 km/h
29.12.2020 21:00 1,6 C 83 % 1000,3 hPa 0,0 l/m 0,0 km/h N -0,9 C 1,6 C 0,0 km/h
29.12.2020 22:00 2,3 C 82 % 1000,2 hPa 0,0 l/m 0,0 km/h N -0,5 C 2,3 C 0,8 km/h
29.12.2020 23:00 2,6 C 82 % 1000,0 hPa 0,0 l/m 0,0 km/h N -0,2 C 2,6 C 0,0 km/h
30.12.2020 00:00 2,3 C 83 % 1000,0 hPa 0,0 l/m 0,0 km/h N -0,3 C 2,3 C 0,0 km/h
30.12.2020 01:00 2,5 C 82 % 1000,0 hPa 0,0 l/m 0,0 km/h N -0,3 C 2,5 C 0,0 km/h
30.12.2020 02:00 2,7 C 82 % 999,9 hPa 0,0 l/m 0,0 km/h N -0,1 C 2,7 C 0,8 km/h
30.12.2020 03:00 2,3 C 82 % 1000,3 hPa 0,0 l/m 0,0 km/h N -0,5 C 2,3 C 2,4 km/h
30.12.2020 04:00 1,9 C 82 % 1000,6 hPa 0,0 l/m 0,0 km/h N -0,8 C 1,9 C 0,0 km/h
30.12.2020 05:00 1,5 C 82 % 1001,2 hPa 0,0 l/m 0,0 km/h N -1,2 C 1,5 C 2,4 km/h
30.12.2020 06:00 2,0 C 82 % 1001,5 hPa 0,0 l/m 0,0 km/h N -0,7 C 2,0 C 1,6 km/h
30.12.2020 07:00 1,6 C 82 % 1002,0 hPa 0,0 l/m 0,0 km/h N -1,1 C 1,6 C 0,0 km/h
30.12.2020 08:00 0,9 C 83 % 1002,6 hPa 0,0 l/m 0,0 km/h N -1,8 C 0,9 C 0,0 km/h
30.12.2020 09:00 1,4 C 82 % 1002,9 hPa 0,0 l/m 0,0 km/h N -1,4 C 1,4 C 0,0 km/h
30.12.2020 10:00 2,7 C 82 % 1003,3 hPa 0,0 l/m 0,0 km/h N -0,1 C 2,7 C 0,8 km/h
30.12.2020 11:00 3,6 C 82 % 1003,5 hPa 0,0 l/m 0,0 km/h N 0,8 C 3,6 C 2,4 km/h
30.12.2020 12:00 4,2 C 83 % 1003,3 hPa 0,0 l/m 0,0 km/h N 1,4 C 4,2 C 5,6 km/h
30.12.2020 13:00 4,7 C 83 % 1003,5 hPa 0,5 l/m 0,0 km/h N 2,0 C 4,7 C 8,9 km/h
30.12.2020 14:00 5,1 C 82 % 1003,8 hPa 0,0 l/m 0,0 km/h N 2,3 C 5,1 C 1,6 km/h
30.12.2020 15:00 5,4 C 82 % 1004,4 hPa 0,0 l/m 0,0 km/h N 2,6 C 5,4 C 0,0 km/h
30.12.2020 16:00 4,3 C 82 % 1005,3 hPa 0,0 l/m 0,0 km/h N 1,5 C 4,3 C 0,0 km/h
30.12.2020 17:00 2,8 C 83 % 1005,8 hPa 0,0 l/m 0,0 km/h N 0,2 C 2,8 C 0,0 km/h
30.12.2020 18:00 2,9 C 83 % 1006,0 hPa 0,0 l/m 0,0 km/h N 0,4 C 2,9 C 4,0 km/h
30.12.2020 19:00 4,3 C 80 % 1006,5 hPa 0,0 l/m 0,8 km/h N 1,1 C 4,3 C 5,6 km/h
30.12.2020 20:00 4,7 C 75 % 1006,7 hPa 0,0 l/m 1,6 km/h N 0,6 C 4,7 C 8,0 km/h
30.12.2020 21:00 4,5 C 75 % 1007,3 hPa 0,0 l/m 0,0 km/h N 0,4 C 4,5 C 8,0 km/h
30.12.2020 22:00 3,9 C 77 % 1007,8 hPa 0,0 l/m 0,0 km/h N 0,2 C 3,9 C 4,0 km/h
30.12.2020 23:00 3,5 C 79 % 1008,0 hPa 0,0 l/m 0,0 km/h N 0,1 C 3,5 C 0,8 km/h
31.12.2020 00:00 3,8 C 79 % 1008,1 hPa 0,0 l/m 1,6 km/h N 0,5 C 3,8 C 11,3 km/h
31.12.2020 01:00 3,7 C 78 % 1008,0 hPa 0,0 l/m 0,8 km/h N 0,2 C 3,7 C 8,1 km/h
31.12.2020 02:00 2,3 C 79 % 1008,5 hPa 0,0 l/m 0,0 km/h N -1,0 C 2,3 C 0,0 km/h
31.12.2020 03:00 0,6 C 81 % 1009,2 hPa 0,0 l/m 0,0 km/h N -2,3 C 0,6 C 0,0 km/h
31.12.2020 04:00 0,1 C 83 % 1009,2 hPa 0,0 l/m 0,0 km/h N -2,5 C 0,1 C 0,0 km/h
31.12.2020 05:00 1,3 C 83 % 1008,8 hPa 0,0 l/m 0,0 km/h N -1,3 C 1,3 C 5,6 km/h
31.12.2020 06:00 2,6 C 83 % 1008,7 hPa 0,0 l/m 0,0 km/h N 0,0 C 2,6 C 5,6 km/h
31.12.2020 07:00 2,5 C 82 % 1009,0 hPa 0,0 l/m 0,0 km/h N -0,3 C 2,5 C 1,6 km/h
31.12.2020 08:00 2,0 C 82 % 1009,2 hPa 0,0 l/m 0,0 km/h N -0,7 C 2,0 C 4,8 km/h
31.12.2020 09:00 2,7 C 82 % 1009,2 hPa 0,0 l/m 1,6 km/h N -0,1 C 2,7 C 6,4 km/h
31.12.2020 10:00 3,8 C 80 % 1009,0 hPa 0,0 l/m 1,6 km/h N 0,7 C 3,8 C 8,0 km/h
31.12.2020 11:00 5,3 C 74 % 1008,8 hPa 0,0 l/m 4,8 km/h N 0,9 C 5,3 C 16,9 km/h
31.12.2020 12:00 6,1 C 68 % 1008,0 hPa 0,0 l/m 4,0 km/h N 0,5 C 6,1 C 14,5 km/h
31.12.2020 13:00 6,3 C 65 % 1007,5 hPa 0,0 l/m 1,6 km/h N 0,1 C 6,3 C 9,7 km/h
31.12.2020 14:00 6,4 C 63 % 1007,5 hPa 0,0 l/m 0,0 km/h N -0,2 C 6,4 C 4,8 km/h
31.12.2020 15:00 6,4 C 66 % 1007,6 hPa 0,0 l/m 0,0 km/h N 0,4 C 6,4 C 0,8 km/h
31.12.2020 16:00 4,3 C 71 % 1007,8 hPa 0,0 l/m 0,0 km/h N -0,6 C 4,3 C 0,0 km/h
31.12.2020 17:00 1,9 C 74 % 1008,0 hPa 0,0 l/m 0,0 km/h N -2,3 C 1,9 C 0,0 km/h
31.12.2020 18:00 -0,0 C 78 % 1008,0 hPa 0,0 l/m 0,0 km/h N -3,5 C -0,0 C 0,0 km/h
31.12.2020 19:00 -1,4 C 80 % 1008,0 hPa 0,0 l/m 0,0 km/h N -4,4 C -1,4 C 0,0 km/h
31.12.2020 20:00 -2,0 C 82 % 1007,9 hPa 0,0 l/m 0,0 km/h N -4,7 C -2,0 C 0,0 km/h
31.12.2020 21:00 -2,5 C 83 % 1008,0 hPa 0,0 l/m 0,0 km/h N -5,1 C -2,5 C 0,0 km/h
31.12.2020 22:00 -3,0 C 83 % 1007,8 hPa 0,0 l/m 0,0 km/h N -5,5 C -3,0 C 0,0 km/h
31.12.2020 23:00 -3,5 C 83 % 1007,7 hPa 0,0 l/m 0,0 km/h N -6,0 C -3,5 C 0,0 km/h
01.01.2021 00:00 -4,1 C 83 % 1007,5 hPa 0,0 l/m 0,0 km/h N -6,6 C -4,1 C 0,0 km/h
01.01.2021 01:00 -4,1 C 83 % 1007,4 hPa 0,0 l/m 0,0 km/h N -6,6 C -4,1 C 0,0 km/h
01.01.2021 02:00 -3,6 C 83 % 1007,8 hPa 0,0 l/m 0,0 km/h N -6,1 C -3,6 C 0,0 km/h
01.01.2021 03:00 -2,8 C 83 % 1007,8 hPa 0,0 l/m 0,0 km/h N -5,4 C -2,8 C 0,0 km/h
01.01.2021 04:00 -2,4 C 82 % 1007,8 hPa 0,0 l/m 0,0 km/h N -5,0 C -2,4 C 0,0 km/h
01.01.2021 05:00 -2,4 C 82 % 1008,0 hPa 0,0 l/m 0,0 km/h N -5,0 C -2,4 C 0,0 km/h
01.01.2021 06:00 -2,3 C 82 % 1008,3 hPa 0,0 l/m 0,0 km/h N -4,9 C -2,3 C 0,0 km/h
01.01.2021 07:00 -2,0 C 82 % 1008,9 hPa 0,0 l/m 0,0 km/h N -4,6 C -2,0 C 0,0 km/h
01.01.2021 08:00 -2,0 C 82 % 1009,3 hPa 0,0 l/m 0,0 km/h N -4,7 C -2,0 C 0,0 km/h
01.01.2021 09:00 -1,9 C 82 % 1009,7 hPa 0,0 l/m 0,0 km/h N -4,5 C -1,9 C 0,0 km/h
01.01.2021 10:00 -1,3 C 82 % 1010,0 hPa 0,0 l/m 0,0 km/h N -4,0 C -1,3 C 3,2 km/h
01.01.2021 11:00 -1,2 C 82 % 1010,3 hPa 0,0 l/m 0,0 km/h N -3,8 C -1,2 C 2,4 km/h
01.01.2021 12:00 -0,9 C 82 % 1010,3 hPa 0,0 l/m 0,0 km/h N -3,6 C -0,9 C 0,0 km/h
01.01.2021 13:00 -0,8 C 83 % 1010,0 hPa 0,0 l/m 0,0 km/h N -3,3 C -0,8 C 2,4 km/h
01.01.2021 14:00 -0,6 C 83 % 1010,3 hPa 0,0 l/m 0,0 km/h N -3,2 C -0,6 C 1,6 km/h
01.01.2021 15:00 -0,6 C 83 % 1010,5 hPa 0,0 l/m 0,0 km/h N -3,1 C -0,6 C 0,0 km/h
01.01.2021 16:00 -0,8 C 83 % 1010,8 hPa 0,0 l/m 0,0 km/h N -3,3 C -0,8 C 0,0 km/h
01.01.2021 17:00 -0,9 C 83 % 1011,2 hPa 0,0 l/m 0,0 km/h N -3,4 C -0,9 C 0,8 km/h
01.01.2021 18:00 -0,9 C 83 % 1011,5 hPa 0,0 l/m 0,0 km/h N -3,5 C -0,9 C 0,8 km/h
01.01.2021 19:00 -1,1 C 83 % 1011,6 hPa 0,0 l/m 0,0 km/h N -3,6 C -1,1 C 1,6 km/h
01.01.2021 20:00 -1,1 C 83 % 1011,7 hPa 0,0 l/m 0,0 km/h N -3,6 C -1,1 C 0,0 km/h
01.01.2021 21:00 -1,0 C 83 % 1011,8 hPa 0,0 l/m 0,0 km/h N -3,6 C -1,0 C 0,0 km/h
01.01.2021 22:00 -0,9 C 83 % 1012,1 hPa 0,0 l/m 0,0 km/h N -3,4 C -0,9 C 0,0 km/h
01.01.2021 23:00 -0,6 C 83 % 1012,1 hPa 0,0 l/m 0,0 km/h N -3,2 C -0,6 C 0,0 km/h
02.01.2021 00:00 -0,6 C 83 % 1012,3 hPa 0,0 l/m 0,0 km/h N -3,1 C -0,6 C 0,0 km/h
02.01.2021 01:00 -0,8 C 83 % 1012,3 hPa 0,0 l/m 0,0 km/h N -3,3 C -0,8 C 0,8 km/h
02.01.2021 02:00 -0,9 C 83 % 1012,5 hPa 0,0 l/m 0,0 km/h N -3,4 C -0,9 C 0,0 km/h
02.01.2021 03:00 -1,1 C 83 % 1012,5 hPa 0,0 l/m 0,0 km/h N -3,6 C -1,1 C 0,0 km/h
02.01.2021 04:00 -1,0 C 83 % 1012,0 hPa 0,0 l/m 0,0 km/h N -3,5 C -1,0 C 0,0 km/h
02.01.2021 05:00 -0,9 C 83 % 1012,0 hPa 0,0 l/m 0,0 km/h N -3,5 C -0,9 C 0,0 km/h
02.01.2021 06:00 -0,9 C 83 % 1012,1 hPa 0,0 l/m 0,0 km/h N -3,4 C -0,9 C 0,0 km/h
02.01.2021 07:00 -0,6 C 83 % 1012,3 hPa 0,0 l/m 0,0 km/h N -3,2 C -0,6 C 0,0 km/h
02.01.2021 08:00 -1,0 C 83 % 1012,7 hPa 0,0 l/m 0,0 km/h N -3,5 C -1,0 C 0,0 km/h
02.01.2021 09:00 -0,7 C 83 % 1013,1 hPa 0,0 l/m 0,0 km/h N -3,2 C -0,7 C 0,8 km/h
02.01.2021 10:00 -0,1 C 84 % 1013,5 hPa 0,0 l/m 0,0 km/h N -2,6 C -0,1 C 0,0 km/h
02.01.2021 11:00 0,6 C 84 % 1013,3 hPa 0,0 l/m 0,0 km/h N -1,8 C 0,6 C 1,6 km/h
02.01.2021 12:00 1,6 C 84 % 1012,8 hPa 0,0 l/m 0,0 km/h N -0,8 C 1,6 C 2,4 km/h
02.01.2021 13:00 2,5 C 84 % 1012,2 hPa 0,0 l/m 0,0 km/h N 0,1 C 2,5 C 0,8 km/h
02.01.2021 14:00 2,8 C 84 % 1012,0 hPa 0,0 l/m 0,0 km/h N 0,3 C 2,8 C 0,0 km/h
02.01.2021 15:00 2,7 C 84 % 1012,3 hPa 0,0 l/m 0,0 km/h N 0,2 C 2,7 C 1,6 km/h
02.01.2021 16:00 2,6 C 84 % 1012,3 hPa 0,0 l/m 0,0 km/h N 0,1 C 2,6 C 0,0 km/h
02.01.2021 17:00 2,4 C 84 % 1012,5 hPa 0,0 l/m 0,0 km/h N -0,1 C 2,4 C 0,0 km/h
02.01.2021 18:00 3,3 C 84 % 1012,5 hPa 0,0 l/m 0,0 km/h N 0,9 C 3,3 C 1,6 km/h
02.01.2021 19:00 3,4 C 84 % 1012,3 hPa 0,0 l/m 0,0 km/h N 0,9 C 3,4 C 0,0 km/h
02.01.2021 20:00 2,9 C 83 % 1012,3 hPa 0,0 l/m 0,0 km/h N 0,3 C 2,9 C 0,0 km/h
02.01.2021 21:00 3,1 C 84 % 1012,4 hPa 0,5 l/m 0,0 km/h N 0,7 C 3,1 C 0,0 km/h
02.01.2021 22:00 2,9 C 83 % 1011,6 hPa 0,0 l/m 0,0 km/h N 0,4 C 2,9 C 0,0 km/h
02.01.2021 23:00 3,1 C 84 % 1011,3 hPa 0,3 l/m 0,0 km/h N 0,5 C 3,1 C 0,0 km/h
03.01.2021 00:00 3,3 C 83 % 1010,5 hPa 0,3 l/m 0,0 km/h N 0,7 C 3,3 C 0,0 km/h
03.01.2021 01:00 3,4 C 83 % 1009,9 hPa 0,0 l/m 0,0 km/h N 0,8 C 3,4 C 0,0 km/h
03.01.2021 02:00 3,9 C 84 % 1009,6 hPa 0,0 l/m 0,0 km/h N 1,4 C 3,9 C 2,4 km/h
03.01.2021 03:00 4,1 C 83 % 1009,3 hPa 0,0 l/m 0,0 km/h N 1,5 C 4,1 C 0,8 km/h
03.01.2021 04:00 4,1 C 84 % 1009,7 hPa 0,0 l/m 0,0 km/h N 1,6 C 4,1 C 4,8 km/h
03.01.2021 05:00 3,8 C 84 % 1009,1 hPa 0,0 l/m 0,0 km/h N 1,3 C 3,8 C 2,4 km/h
03.01.2021 06:00 3,7 C 83 % 1009,0 hPa 0,0 l/m 0,0 km/h N 1,1 C 3,7 C 1,6 km/h
03.01.2021 07:00 3,7 C 83 % 1009,0 hPa 0,0 l/m 0,0 km/h N 1,1 C 3,7 C 4,0 km/h
03.01.2021 08:00 3,7 C 83 % 1009,1 hPa 0,0 l/m 0,0 km/h N 1,1 C 3,7 C 1,6 km/h
03.01.2021 09:00 3,8 C 83 % 1009,2 hPa 0,0 l/m 0,0 km/h N 1,1 C 3,8 C 5,6 km/h
03.01.2021 10:00 4,1 C 83 % 1009,3 hPa 0,0 l/m 0,0 km/h N 1,4 C 4,1 C 4,8 km/h
03.01.2021 11:00 4,4 C 83 % 1009,3 hPa 0,0 l/m 0,0 km/h N 1,7 C 4,4 C 6,4 km/h
03.01.2021 12:00 4,8 C 83 % 1008,8 hPa 0,0 l/m 0,0 km/h N 2,2 C 4,8 C 3,2 km/h
03.01.2021 13:00 5,1 C 83 % 1008,8 hPa 0,0 l/m 0,0 km/h N 2,5 C 5,1 C 1,6 km/h
03.01.2021 14:00 5,3 C 83 % 1009,3 hPa 0,0 l/m 0,0 km/h N 2,7 C 5,3 C 0,8 km/h
03.01.2021 15:00 5,4 C 83 % 1009,4 hPa 0,0 l/m 0,0 km/h N 2,7 C 5,4 C 3,2 km/h
03.01.2021 16:00 4,1 C 82 % 1010,1 hPa 0,0 l/m 1,6 km/h N 1,4 C 4,1 C 11,3 km/h
03.01.2021 17:00 3,2 C 82 % 1010,7 hPa 0,0 l/m 0,8 km/h N 0,4 C 3,2 C 7,3 km/h
03.01.2021 18:00 2,8 C 82 % 1010,9 hPa 0,0 l/m 0,0 km/h N 0,1 C 2,8 C 4,8 km/h
03.01.2021 19:00 2,7 C 82 % 1011,3 hPa 0,0 l/m 0,0 km/h N -0,1 C 2,7 C 5,6 km/h
03.01.2021 20:00 2,5 C 82 % 1011,5 hPa 0,0 l/m 0,0 km/h N -0,3 C 2,5 C 4,0 km/h
03.01.2021 21:00 2,7 C 82 % 1011,8 hPa 0,0 l/m 0,0 km/h N -0,1 C 2,7 C 0,8 km/h
03.01.2021 22:00 2,5 C 83 % 1012,0 hPa 0,0 l/m 0,0 km/h N -0,2 C 2,5 C 4,0 km/h
03.01.2021 23:00 2,3 C 83 % 1012,2 hPa 0,0 l/m 0,0 km/h N -0,3 C 2,3 C 1,6 km/h
Min-Datum _ 01.01.21 28.12.20 28.12.20 - 28.12.20 - 01.01.21 01.01.21 28.12.20
_ Min-Zeit 00:30 12:30 23:00 - 07:45 - 00:30 00:30 08:15
Minimum _ -4,2 C 62 % 984,7 hPa - 0,0 km/h - -6,6 C -4,2 C 0,0 km/h
Max-Datum _ 29.12.20 02.01.21 02.01.21 29.12.20 28.12.20 - 29.12.20 29.12.20 28.12.20
_ Max-Zeit 15:00 10:30 10:30 00:00 03:45 - 14:00 15:00 15:00
Maximum _ 7,8 C 84 % 1013,6 hPa 2,1 l/m 7,3 km/h
N
- 3,3 C 7,8 C 22,5 km/h
N
Durchschnitt _ 2,0 C 81 % 1003,8 hPa #4,2 l/m 0,3 km/h N -1,0 C 1,9 C 2,8 km/h